Meadows Place, Texas
Current Conditions -  °F | °C
As of 6:53 PM on Sunday 23 Nov 2014 (Local Time) from KSGR Reporting Station
Clear Clear  
Wind Chill: 69°   Ceiling: Unl
Heat Index: 69°   Visibility: 10mi
Dew Point: 56°   Wind: 9mph
Humidity: 63%   Direction: 200°SSW
Pressure: 29.61"   Gusts: NA
Location:  29.6248°N, 95.5633°W
Report Text: KSGR 240053Z 20008KT 10SM CLR 21/13 A2961 RMK AO2 SLP028 T02060133
Loading
Personal Weather Stations






























Interactive Weather Map New forecast layout! Learn more

10-Day Weather Forecast

Advertisements
Track Severe Weather on mobile